Time;durP1;ratioP1;P1;durP2;ratioP2;P2;SDS_P1;SDS_P2;PMS_P1;PMS_P2;Temp;Humidity;BMP_temperature;BMP_pressure;BME280_temperature;BME280_humidity;BME280_pressure;Samples;Min_cycle;Max_cycle;Signal;HPM_P1;HPM_P2
2021/04/09 00:01:32;;;;;;;19.02;13.30;;;3.40;55.40;;;;;;5016591;28;20181;-90
2021/04/09 00:04:22;;;;;;;14.73;13.13;;;3.50;54.80;;;;;;5016856;28;20189;-91
2021/04/09 00:06:54;;;;;;;15.48;12.98;;;3.70;71.40;;;;;;5016786;28;20176;-91
2021/04/09 00:09:30;;;;;;;16.02;13.40;;;3.70;54.40;;;;;;5013667;28;20177;-90
2021/04/09 00:11:56;;;;;;;17.10;12.45;;;;;;;;;;5018139;28;20180;-92
2021/04/09 00:14:22;;;;;;;15.05;13.13;;;;;;;;;;5018033;28;20153;-91
2021/04/09 00:16:55;;;;;;;16.00;13.27;;;3.80;54.80;;;;;;5014704;28;20183;-90
2021/04/09 00:19:44;;;;;;;14.80;12.32;;;4.00;52.80;;;;;;5001855;28;20165;-91
2021/04/09 00:22:13;;;;;;;15.88;11.88;;;4.10;52.90;;;;;;5016117;28;20169;-90
2021/04/09 00:24:40;;;;;;;14.13;11.30;;;;;;;;;;5014645;28;20193;-91
2021/04/09 00:36:04;;;;;;;11.52;10.38;;;4.40;51.40;;;;;;5074577;22;21141;-91
2021/04/09 00:41:05;;;;;;;16.27;11.63;;;;;;;;;;4042775;23;20218;-90
2021/04/09 00:49:40;;;;;;;10.80;9.65;;;4.70;59.30;;;;;;2298298;22;20194;-91
2021/04/09 01:03:54;;;;;;;9.55;8.40;;;4.70;63.60;;;;;;3681640;22;20526;-89
2021/04/09 01:06:21;;;;;;;9.63;8.70;;;8.70;53.70;;;;;;5032270;28;20192;-90
2021/04/09 01:08:50;;;;;;;10.77;9.75;;;4.70;52.10;;;;;;5037137;28;20216;-91
2021/04/09 01:11:20;;;;;;;12.00;10.90;;;4.70;51.70;;;;;;5580079;22;20198;-90
2021/04/09 01:13:46;;;;;;;13.57;11.15;;;;;;;;;;5037422;28;20173;-90
2021/04/09 01:16:24;;;;;;;12.68;10.30;;;4.60;51.20;;;;;;5036247;28;20200;-90
2021/04/09 01:19:00;;;;;;;10.43;9.40;;;4.60;51.40;;;;;;5034512;28;20168;-90
2021/04/09 01:21:38;;;;;;;11.10;10.10;;;4.50;51.60;;;;;;5035166;28;20180;-91
2021/04/09 01:24:04;;;;;;;12.23;11.10;;;;;;;;;;5035261;28;20167;-89
2021/04/09 01:26:48;;;;;;;11.63;9.00;;;4.50;51.40;;;;;;5035002;28;20180;-91
2021/04/09 01:29:27;;;;;;;12.18;9.27;;;7.10;57.90;;;;;;5037417;28;20180;-90
2021/04/09 01:32:06;;;;;;;10.23;9.32;;;4.50;51.70;;;;;;5036531;28;20207;-89
2021/04/09 01:35:00;;;;;;;12.55;9.43;;;7.10;53.60;;;;;;5034161;28;20493;-90
2021/04/09 01:37:34;;;;;;;10.30;9.20;;;4.40;51.70;;;;;;5036361;28;20185;-91
2021/04/09 01:40:22;;;;;;;9.85;9.05;;;4.60;53.30;;;;;;5034528;28;20160;-90
2021/04/09 01:42:54;;;;;;;12.57;10.38;;;4.30;52.00;;;;;;5034098;28;20636;-90
2021/04/09 01:45:24;;;;;;;10.05;9.15;;;4.30;52.00;;;;;;5035854;28;20160;-91
2021/04/09 01:47:56;;;;;;;10.80;9.73;;;6.50;55.30;;;;;;5036743;28;20193;-91
2021/04/09 01:50:27;;;;;;;14.30;10.65;;;4.60;52.40;;;;;;5035105;28;20172;-91
2021/04/09 01:53:01;;;;;;;9.32;8.48;;;4.30;59.50;;;;;;5035981;28;20164;-91
2021/04/09 01:58:36;;;;;;;10.25;9.15;;;4.60;51.40;;;;;;5192323;22;20223;-91
2021/04/09 02:01:02;;;;;;;15.23;9.52;;;4.70;59.80;;;;;;5020138;28;20152;-89
2021/04/09 02:03:47;;;;;;;11.25;9.00;;;4.60;51.40;;;;;;5020947;28;20177;-92
2021/04/09 02:06:40;;;;;;;9.98;9.00;;;4.60;51.20;;;;;;5446776;22;20895;-90
2021/04/09 02:10:09;;;;;;;9.90;8.85;;;4.80;67.20;;;;;;5039718;28;20189;-91
2021/04/09 02:12:56;;;;;;;10.18;8.98;;;4.70;51.10;;;;;;5040700;28;20242;-90
2021/04/09 02:26:13;;;;;;;7.93;7.22;;;;;;;;;;5019050;28;20236;-89
2021/04/09 02:28:39;;;;;;;9.10;8.30;;;;;;;;;;5220862;22;20231;-89
2021/04/09 02:31:06;;;;;;;9.43;7.10;;;;;;;;;;5020586;28;20189;-87
2021/04/09 02:33:36;;;;;;;13.77;8.32;;;4.90;50.40;;;;;;5020345;28;20174;-91
2021/04/09 02:41:16;;;;;;;8.70;8.10;;;5.00;51.10;;;;;;5658344;22;20224;-90
2021/04/09 02:43:42;;;;;;;9.40;8.43;;;;;;;;;;5390113;22;20217;-90
2021/04/09 02:46:13;;;;;;;10.77;9.10;;;5.00;50.50;;;;;;5020966;28;20156;-89
2021/04/09 02:48:50;;;;;;;10.30;9.35;;;5.00;50.60;;;;;;5019329;28;20203;-90
2021/04/09 02:51:21;;;;;;;10.50;8.73;;;4.70;58.80;;;;;;5019631;28;20180;-87
2021/04/09 02:53:52;;;;;;;9.98;9.02;;;4.90;50.80;;;;;;5017861;28;20186;-90
2021/04/09 02:56:22;;;;;;;10.57;9.20;;;4.90;50.80;;;;;;5198678;22;20227;-90
2021/04/09 02:59:24;;;;;;;10.93;9.73;;;2.60;50.90;;;;;;5037516;28;20215;-91
2021/04/09 03:01:50;;;;;;;9.52;8.73;;;;;;;;;;5037638;28;20225;-90
2021/04/09 03:04:17;;;;;;;10.43;9.43;;;4.90;51.00;;;;;;5037547;28;20164;-90
2021/04/09 03:06:49;;;;;;;13.07;10.27;;;4.90;51.10;;;;;;5036687;28;20163;-91
2021/04/09 03:09:21;;;;;;;12.02;9.48;;;6.80;52.60;;;;;;5035532;28;20275;-91
2021/04/09 03:11:48;;;;;;;10.75;9.73;;;;;;;;;;5019892;28;20185;-90
2021/04/09 03:14:17;;;;;;;10.88;9.07;;;4.80;51.10;;;;;;5035140;28;20204;-91
2021/04/09 03:16:55;;;;;;;9.82;8.98;;;5.80;52.40;;;;;;5035809;28;20181;-91
2021/04/09 03:19:21;;;;;;;10.40;9.30;;;4.80;65.50;;;;;;5317650;22;20251;-90
2021/04/09 03:21:47;;;;;;;9.30;8.50;;;;;;;;;;5016505;28;20225;-90
2021/04/09 03:26:49;;;;;;;9.75;8.85;;;5.00;51.30;;;;;;5060378;22;20251;-91
2021/04/09 03:29:16;;;;;;;10.40;8.63;;;;;;;;;;5015710;28;20613;-91
2021/04/09 03:31:42;;;;;;;12.45;8.55;;;4.90;51.00;;;;;;5015966;28;20208;-89
2021/04/09 03:34:08;;;;;;;10.35;9.55;;;8.80;55.70;;;;;;5019184;28;20189;-89
2021/04/09 03:36:34;;;;;;;11.57;10.20;;;;;;;;;;5017829;28;20532;-90
2021/04/09 03:39:00;;;;;;;14.07;9.82;;;4.80;65.70;;;;;;5092088;22;20204;-90
2021/04/09 03:41:26;;;;;;;10.00;8.90;;;;;;;;;;5037150;28;20640;-89
2021/04/09 03:43:52;;;;;;;15.57;9.70;;;;;;;;;;5035462;28;20179;-90
2021/04/09 03:46:18;;;;;;;14.80;9.20;;;;;;;;;;5034707;28;20177;-91
2021/04/09 03:48:44;;;;;;;12.98;9.27;;;;;;;;;;5036970;28;20196;-89
2021/04/09 03:51:10;;;;;;;10.88;9.85;;;4.90;50.90;;;;;;5037368;28;20173;-92
2021/04/09 03:53:36;;;;;;;9.17;8.27;;;;;;;;;;5036029;28;20195;-89
2021/04/09 03:56:01;;;;;;;9.75;8.43;;;4.80;51.20;;;;;;5038827;28;20526;-91
2021/04/09 03:58:28;;;;;;;9.50;8.57;;;;;;;;;;5038309;28;20168;-90
2021/04/09 04:00:53;;;;;;;9.75;8.20;;;4.80;51.30;;;;;;5039371;28;20205;-92
2021/04/09 04:03:22;;;;;;;11.13;9.30;;;6.60;52.20;;;;;;5637556;22;20252;-91
2021/04/09 04:05:48;;;;;;;14.75;9.63;;;5.00;60.10;;;;;;5182611;22;20472;-88
2021/04/09 04:08:14;;;;;;;13.10;9.40;;;;;;;;;;5035777;28;20207;-90
2021/04/09 04:10:40;;;;;;;11.90;8.88;;;;;;;;;;5034540;28;20177;-91
2021/04/09 04:13:06;;;;;;;11.32;9.68;;;;;;;;;;5037210;28;20180;-89
2021/04/09 04:15:32;;;;;;;11.18;10.18;;;4.90;50.70;;;;;;5034944;28;20180;-87
2021/04/09 04:17:58;;;;;;;14.70;10.80;;;;;;;;;;5033211;28;20172;-90
2021/04/09 04:20:25;;;;;;;17.20;9.00;;;;;;;;;;5017463;28;20176;-90
2021/04/09 04:22:51;;;;;;;12.27;9.70;;;;;;;;;;5028653;28;20180;-90
2021/04/09 04:25:19;;;;;;;12.57;10.15;;;4.80;51.10;;;;;;5032117;28;20172;-91
2021/04/09 04:27:46;;;;;;;12.10;10.95;;;7.20;57.00;;;;;;5033662;28;20246;-88
2021/04/09 04:30:16;;;;;;;11.18;9.20;;;4.70;67.70;;;;;;5032791;28;20192;-91
2021/04/09 04:32:43;;;;;;;12.50;9.70;;;4.70;52.00;;;;;;5034195;28;20211;-90
2021/04/09 04:35:11;;;;;;;12.57;9.80;;;4.70;63.90;;;;;;5017717;28;20196;-91
2021/04/09 04:37:48;;;;;;;9.95;9.10;;;4.40;52.70;;;;;;5015435;28;20208;-91
2021/04/09 04:40:20;;;;;;;12.77;9.40;;;4.40;51.60;;;;;;5034079;28;20192;-90
2021/04/09 04:43:10;;;;;;;8.98;8.10;;;4.70;52.20;;;;;;5202395;22;20224;-88
2021/04/09 04:45:43;;;;;;;17.48;10.57;;;4.80;51.40;;;;;;5035004;28;20165;-90
2021/04/09 04:48:32;;;;;;;12.35;9.55;;;;;;;;;;5181269;23;20260;-91
2021/04/09 04:50:58;;;;;;;10.68;9.10;;;;;;;;;;5029550;28;20240;-90
2021/04/09 04:53:24;;;;;;;10.93;9.80;;;;;;;;;;5014141;28;20176;-91
2021/04/09 04:55:50;;;;;;;13.60;10.60;;;;;;;;;;5012180;28;20161;-90
2021/04/09 04:58:19;;;;;;;11.27;10.18;;;4.80;66.40;;;;;;5013758;28;20507;-89
2021/04/09 05:00:46;;;;;;;14.90;10.18;;;6.60;57.60;;;;;;5012439;28;20181;-90
2021/04/09 05:03:14;;;;;;;11.38;9.95;;;7.30;56.00;;;;;;5014022;28;20223;-90
2021/04/09 05:05:40;;;;;;;12.48;9.55;;;;;;;;;;5011353;28;20185;-89
2021/04/09 05:08:06;;;;;;;30.50;10.65;;;4.80;51.50;;;;;;5013815;28;20209;-88
2021/04/09 05:10:37;;;;;;;14.67;10.20;;;4.90;52.70;;;;;;5011302;28;20162;-90
2021/04/09 05:13:03;;;;;;;13.98;9.98;;;4.90;64.50;;;;;;5012827;28;20268;-91
2021/04/09 05:15:29;;;;;;;9.43;8.27;;;;;;;;;;5014315;28;20189;-90
2021/04/09 05:17:55;;;;;;;11.55;10.40;;;;;;;;;;5014933;28;20174;-89
2021/04/09 05:20:21;;;;;;;10.70;9.45;;;4.90;51.30;;;;;;5013763;28;20174;-91
2021/04/09 05:22:47;;;;;;;10.80;9.63;;;;;;;;;;5014542;28;20173;-91
2021/04/09 05:25:13;;;;;;;17.20;9.88;;;5.20;66.70;;;;;;5027610;28;20178;-91
2021/04/09 05:27:39;;;;;;;12.60;8.97;;;;;;;;;;5012589;28;20224;-88
2021/04/09 05:30:08;;;;;;;12.77;9.88;;;5.00;51.10;;;;;;5027886;28;20424;-90
2021/04/09 05:32:39;;;;;;;13.80;10.45;;;5.10;55.80;;;;;;5012080;28;20216;-89
2021/04/09 05:35:07;;;;;;;13.90;11.18;;;4.80;55.80;;;;;;5011412;28;20165;-91
2021/04/09 05:37:35;;;;;;;10.55;9.63;;;;;;;;;;5012345;28;20318;-91
2021/04/09 05:40:01;;;;;;;12.23;9.77;;;;;;;;;;5028551;28;20177;-91
2021/04/09 05:42:28;;;;;;;15.05;10.38;;;;;;;;;;5010538;28;20165;-91
2021/04/09 05:44:54;;;;;;;15.18;9.32;;;5.30;51.10;;;;;;5027097;28;20189;-91
2021/04/09 05:47:20;;;;;;;12.45;8.82;;;5.30;63.60;;;;;;5008877;28;20185;-87
2021/04/09 05:49:51;;;;;;;9.73;8.53;;;5.40;50.70;;;;;;5003531;22;10001576;-90
2021/04/09 05:52:20;;;;;;;10.73;9.73;;;5.40;51.40;;;;;;4990091;28;20224;-89
2021/04/09 05:54:47;;;;;;;13.75;9.75;;;5.50;66.70;;;;;;4988754;28;20178;-91
2021/04/09 05:57:29;;;;;;;10.73;9.55;;;6.20;52.70;;;;;;4987385;28;20213;-90
2021/04/09 05:59:55;;;;;;;10.75;9.05;;;;;;;;;;4986719;28;20178;-91
2021/04/09 06:02:22;;;;;;;16.85;10.98;;;5.80;50.20;;;;;;4986506;28;20200;-88
2021/04/09 06:04:51;;;;;;;10.55;9.63;;;6.60;51.00;;;;;;4987906;28;20672;-89
2021/04/09 06:07:20;;;;;;;11.32;10.23;;;7.90;55.80;;;;;;4985685;28;20693;-92
2021/04/09 06:09:48;;;;;;;9.68;8.65;;;;;;;;;;4974953;28;20253;-85
2021/04/09 06:12:14;;;;;;;9.48;8.57;;;6.30;49.40;;;;;;4972160;28;20186;-90
2021/04/09 06:14:40;;;;;;;10.03;9.03;;;;;;;;;;4964786;28;20548;-91
2021/04/09 06:17:06;;;;;;;9.07;8.17;;;;;;;;;;4958424;28;20363;-86
2021/04/09 06:19:32;;;;;;;9.05;8.23;;;7.70;57.70;;;;;;4971157;28;20502;-91
2021/04/09 06:21:58;;;;;;;8.32;7.70;;;;;;;;;;4970876;28;20187;-86
2021/04/09 06:24:27;;;;;;;9.40;8.43;;;7.90;46.80;;;;;;4970534;28;20174;-90
2021/04/09 06:26:53;;;;;;;8.60;7.80;;;8.60;46.90;;;;;;4971283;28;20594;-91
2021/04/09 06:29:19;;;;;;;9.47;7.77;;;10.20;49.90;;;;;;4954645;29;20183;-88
2021/04/09 06:31:53;;;;;;;9.93;9.00;;;8.70;55.10;;;;;;4967469;28;20205;-91
2021/04/09 06:34:20;;;;;;;9.95;8.80;;;11.70;47.20;;;;;;4968181;29;20320;-92
2021/04/09 06:36:46;;;;;;;11.32;8.02;;;;;;;;;;4967091;29;20190;-88
2021/04/09 06:39:32;;;;;;;11.63;9.70;;;9.10;44.70;;;;;;4971690;28;20178;-90
2021/04/09 06:42:06;;;;;;;11.40;10.27;;;9.50;44.80;;;;;;4970359;28;20501;-91
2021/04/09 06:44:32;;;;;;;8.50;7.72;;;;;;;;;;4972278;28;20245;-88
2021/04/09 06:46:58;;;;;;;12.67;8.27;;;9.90;43.50;;;;;;4973371;28;20178;-91
2021/04/09 06:49:26;;;;;;;11.77;8.90;;;;;;;;;;4965665;28;20972;-91
2021/04/09 06:51:52;;;;;;;8.40;7.80;;;10.40;41.80;;;;;;4963230;28;20552;-85
2021/04/09 06:54:17;;;;;;;7.67;6.80;;;11.90;45.30;;;;;;4954852;28;20178;-85
2021/04/09 06:56:44;;;;;;;9.70;8.90;;;;;;;;;;4964569;28;20425;-84
2021/04/09 06:59:29;;;;;;;9.10;8.37;;;11.30;40.40;;;;;;4975722;28;20188;-85
2021/04/09 07:01:58;;;;;;;9.70;8.33;;;11.40;40.60;;;;;;4990779;28;20448;-91
2021/04/09 07:04:27;;;;;;;9.27;8.40;;;12.90;41.10;;;;;;4978108;28;20420;-88
2021/04/09 07:07:28;;;;;;;8.77;8.03;;;12.90;39.90;;;;;;4995999;28;20425;-89
2021/04/09 07:09:57;;;;;;;8.73;7.27;;;13.70;39.80;;;;;;4998310;28;20495;-89
2021/04/09 07:12:27;;;;;;;8.17;7.60;;;12.10;38.30;;;;;;5190870;22;21368;-86
2021/04/09 07:15:58;;;;;;;8.27;7.47;;;12.60;40.50;;;;;;5038544;28;21001;-91
2021/04/09 07:18:50;;;;;;;9.20;8.30;;;11.60;38.30;;;;;;5241181;22;20487;-89
2021/04/09 07:21:26;;;;;;;9.47;8.00;;;13.80;40.20;;;;;;5036507;28;20435;-89
2021/04/09 07:24:10;;;;;;;9.10;8.25;;;12.50;40.90;;;;;;5029745;28;20605;-89
2021/04/09 07:26:46;;;;;;;8.67;7.77;;;14.40;41.30;;;;;;5031081;28;20161;-90
2021/04/09 07:29:37;;;;;;;9.93;8.97;;;12.10;38.80;;;;;;5030704;28;20443;-88
2021/04/09 07:32:07;;;;;;;8.50;7.57;;;12.60;39.40;;;;;;5015443;28;20424;-89
2021/04/09 07:35:03;;;;;;;9.20;8.40;;;14.00;40.70;;;;;;5010620;28;20420;-89
2021/04/09 07:41:09;;;;;;;7.97;7.43;;;14.20;39.20;;;;;;5011855;28;20494;-87
2021/04/09 07:43:37;;;;;;;9.70;8.53;;;12.70;37.60;;;;;;4996792;28;20500;-87
2021/04/09 07:46:04;;;;;;;8.80;8.00;;;12.80;37.40;;;;;;4995945;28;20408;-84
2021/04/09 07:51:28;;;;;;;8.87;8.00;;;13.20;43.60;;;;;;5491445;22;20510;-88
2021/04/09 07:54:10;;;;;;;8.73;8.13;;;13.60;34.70;;;;;;5013404;28;20397;-88
2021/04/09 07:56:43;;;;;;;10.43;9.10;;;14.60;35.70;;;;;;5014576;28;20208;-88
2021/04/09 07:59:11;;;;;;;10.60;8.20;;;14.80;36.20;;;;;;5012545;28;20490;-88
2021/04/09 08:01:47;;;;;;;9.03;8.17;;;14.60;37.20;;;;;;5012530;28;20424;-89
2021/04/09 08:04:13;;;;;;;10.67;8.87;;;17.70;38.30;;;;;;5010229;28;20424;-90
2021/04/09 08:06:45;;;;;;;10.60;9.60;;;13.60;37.00;;;;;;5009286;28;20409;-90
2021/04/09 08:09:10;;;;;;;11.97;9.80;;;16.10;37.70;;;;;;5007040;28;20962;-92
2021/04/09 08:11:38;;;;;;;8.80;7.97;;;13.20;34.40;;;;;;4650769;28;10000420;-89
2021/04/09 08:14:48;;;;;;;8.43;7.63;;;14.70;36.20;;;;;;5008472;28;20804;-88
2021/04/09 08:19:56;;;;;;;10.47;8.77;;;12.10;35.90;;;;;;5066771;22;20493;-90
2021/04/09 08:22:22;;;;;;;10.30;9.37;;;11.90;38.50;;;;;;5052441;28;20441;-89
2021/04/09 08:24:49;;;;;;;9.37;8.60;;;17.40;44.00;;;;;;5046346;28;20501;-85
2021/04/09 08:27:15;;;;;;;8.97;8.27;;;12.80;37.30;;;;;;5049184;28;20546;-89
2021/04/09 08:29:46;;;;;;;7.90;7.20;;;12.90;37.60;;;;;;5047375;28;20430;-89
2021/04/09 08:32:39;;;;;;;13.83;9.13;;;16.20;39.20;;;;;;5052173;28;20411;-92
2021/04/09 08:35:10;;;;;;;10.17;9.20;;;13.40;43.80;;;;;;5049758;28;20491;-91
2021/04/09 08:37:36;;;;;;;10.03;9.03;;;13.30;35.40;;;;;;5046492;28;20410;-90
2021/04/09 08:40:03;;;;;;;10.37;8.50;;;12.60;38.00;;;;;;5035921;28;20437;-87
2021/04/09 08:42:31;;;;;;;10.60;8.07;;;12.80;36.50;;;;;;5032700;28;20478;-91
2021/04/09 08:45:03;;;;;;;10.80;8.60;;;12.40;36.60;;;;;;5033075;28;20423;-88
2021/04/09 08:47:44;;;;;;;10.80;7.53;;;12.30;37.10;;;;;;5038697;28;20484;-88
2021/04/09 08:50:12;;;;;;;7.97;7.37;;;12.10;38.00;;;;;;5037446;28;20421;-85
2021/04/09 08:52:42;;;;;;;9.80;9.00;;;12.40;38.40;;;;;;5032276;28;20430;-87
2021/04/09 08:55:09;;;;;;;8.20;7.50;;;12.50;37.20;;;;;;5030794;28;20419;-87
2021/04/09 08:57:37;;;;;;;8.93;8.07;;;12.50;37.50;;;;;;5033590;28;20442;-86
2021/04/09 09:00:23;;;;;;;8.60;7.47;;;12.70;37.60;;;;;;5032570;28;20419;-89
2021/04/09 09:02:55;;;;;;;9.30;8.40;;;14.50;37.50;;;;;;5041684;28;20447;-89
2021/04/09 09:05:21;;;;;;;9.43;8.50;;;15.80;36.70;;;;;;5040617;28;20430;-90
2021/04/09 09:07:49;;;;;;;8.77;8.07;;;14.20;33.80;;;;;;5043837;28;20470;-87
2021/04/09 09:10:30;;;;;;;9.23;8.33;;;16.10;32.70;;;;;;5037920;28;20421;-88
2021/04/09 09:13:05;;;;;;;10.73;9.63;;;16.20;32.00;;;;;;5060594;28;20433;-89
2021/04/09 09:15:57;;;;;;;10.17;9.13;;;17.90;33.10;;;;;;5070163;28;20421;-92
2021/04/09 09:18:25;;;;;;;11.50;8.40;;;17.80;30.20;;;;;;5050099;28;20467;-91
2021/04/09 09:21:16;;;;;;;9.83;8.77;;;17.60;30.70;;;;;;5044108;28;20494;-88
2021/04/09 09:24:04;;;;;;;9.30;7.70;;;16.40;30.00;;;;;;5022572;28;20961;-88
2021/04/09 09:26:38;;;;;;;11.27;8.60;;;16.10;31.00;;;;;;5011633;28;20416;-87
2021/04/09 09:29:26;;;;;;;8.60;7.90;;;16.20;30.50;;;;;;5013258;28;20479;-88
2021/04/09 09:31:52;;;;;;;7.97;7.40;;;16.10;30.50;;;;;;5010480;28;20416;-87
2021/04/09 09:34:18;;;;;;;10.57;9.60;;;16.10;30.90;;;;;;5010202;28;20812;-87
2021/04/09 09:37:17;;;;;;;8.03;7.43;;;16.40;30.60;;;;;;5010440;28;20173;-87
2021/04/09 09:39:53;;;;;;;8.63;8.10;;;16.50;30.30;;;;;;5018377;28;20990;-88
2021/04/09 09:42:26;;;;;;;9.43;8.73;;;15.80;30.80;;;;;;5025868;28;20425;-88
2021/04/09 09:45:01;;;;;;;9.47;8.67;;;15.40;31.30;;;;;;5039467;28;20460;-88
2021/04/09 09:47:40;;;;;;;10.97;8.67;;;15.00;31.90;;;;;;5039647;28;20545;-87
2021/04/09 09:50:09;;;;;;;10.47;8.83;;;14.50;32.00;;;;;;5043949;28;20783;-87
2021/04/09 09:52:44;;;;;;;8.90;8.20;;;15.60;33.80;;;;;;5044181;28;20557;-86
2021/04/09 09:55:19;;;;;;;10.57;9.67;;;16.10;31.70;;;;;;5038653;28;20422;-87
2021/04/09 09:57:56;;;;;;;10.00;8.70;;;16.10;31.00;;;;;;5040807;28;20457;-90
2021/04/09 10:00:44;;;;;;;8.90;8.30;;;16.30;31.90;;;;;;5042074;28;20437;-86
2021/04/09 10:03:28;;;;;;;10.20;9.20;;;16.20;30.70;;;;;;5044079;28;20509;-90
2021/04/09 10:06:02;;;;;;;9.93;8.93;;;16.30;30.80;;;;;;5064671;28;20477;-86
2021/04/09 10:08:30;;;;;;;9.10;8.40;;;16.10;30.80;;;;;;5060391;28;20453;-86
2021/04/09 10:11:06;;;;;;;11.63;10.37;;;16.20;31.10;;;;;;5038888;28;20442;-89
2021/04/09 10:13:37;;;;;;;10.90;9.77;;;17.00;31.40;;;;;;5039220;28;20438;-92
2021/04/09 10:16:16;;;;;;;10.17;9.17;;;16.50;31.50;;;;;;5040868;28;20486;-89
2021/04/09 10:22:16;;;;;;;9.67;8.07;;;15.90;31.30;;;;;;5051270;28;20418;-89
2021/04/09 10:24:44;;;;;;;9.30;8.50;;;15.80;32.80;;;;;;5052128;28;20497;-84
2021/04/09 10:27:16;;;;;;;8.33;7.73;;;16.80;35.10;;;;;;5050643;28;20925;-88
2021/04/09 10:29:46;;;;;;;9.30;8.43;;;14.80;32.90;;;;;;5049894;28;20430;-86
2021/04/09 10:35:27;;;;;;;9.70;9.00;;;16.10;34.90;;;;;;5094535;22;20550;-87
2021/04/09 10:38:13;;;;;;;9.90;8.73;;;14.00;33.70;;;;;;5036012;28;20419;-88
2021/04/09 10:41:07;;;;;;;8.97;8.17;;;17.30;36.80;;;;;;5029063;28;20436;-89
2021/04/09 10:43:36;;;;;;;9.83;8.97;;;14.60;33.40;;;;;;5030753;28;20511;-87
2021/04/09 10:46:14;;;;;;;9.87;8.63;;;16.40;37.00;;;;;;5023350;28;20458;-86
2021/04/09 10:48:41;;;;;;;9.33;8.60;;;14.00;33.40;;;;;;5026295;28;20529;-90
2021/04/09 10:51:31;;;;;;;9.43;8.50;;;13.90;32.60;;;;;;5033480;28;20430;-91
2021/04/09 10:53:58;;;;;;;9.13;8.43;;;14.80;35.10;;;;;;5092603;23;20504;-88
2021/04/09 10:56:24;;;;;;;10.83;9.80;;;13.40;42.20;;;;;;5058882;28;20478;-88
2021/04/09 10:58:53;;;;;;;12.83;11.63;;;15.00;38.30;;;;;;5057512;28;20403;-89
2021/04/09 11:01:25;;;;;;;10.23;9.03;;;13.80;35.70;;;;;;5114032;22;20586;-89
2021/04/09 11:06:34;;;;;;;9.23;8.50;;;13.30;36.00;;;;;;5042655;23;20490;-90
2021/04/09 11:09:30;;;;;;;9.43;8.53;;;14.40;37.00;;;;;;5032392;28;20589;-90
2021/04/09 11:12:27;;;;;;;9.30;8.50;;;13.30;36.90;;;;;;5031353;28;20419;-90
2021/04/09 11:15:20;;;;;;;9.50;8.70;;;13.90;37.10;;;;;;5032367;28;20414;-89
2021/04/09 11:18:20;;;;;;;9.50;8.50;;;15.20;37.80;;;;;;5032269;28;20442;-89
2021/04/09 11:20:47;;;;;;;11.37;9.90;;;14.40;37.30;;;;;;5028428;28;20546;-91
2021/04/09 11:23:15;;;;;;;9.33;8.50;;;15.00;38.90;;;;;;5024190;28;20582;-88
2021/04/09 11:26:05;;;;;;;10.43;9.23;;;12.80;36.80;;;;;;5017341;28;20419;-88
2021/04/09 11:28:31;;;;;;;10.10;9.10;;;13.70;36.10;;;;;;5028452;28;20550;-86
2021/04/09 11:31:01;;;;;;;10.33;9.13;;;13.70;35.60;;;;;;5018260;28;20517;-85
2021/04/09 11:33:35;;;;;;;10.67;8.60;;;13.60;35.90;;;;;;5015926;28;20191;-86
2021/04/09 11:36:19;;;;;;;9.10;8.20;;;13.80;35.20;;;;;;5017045;28;20423;-85
2021/04/09 11:38:45;;;;;;;10.37;9.43;;;13.70;35.40;;;;;;5016289;28;20483;-86
2021/04/09 11:41:29;;;;;;;10.23;9.30;;;13.80;35.60;;;;;;5014819;28;20541;-86
2021/04/09 11:43:55;;;;;;;12.50;11.30;;;13.70;35.70;;;;;;5014625;28;20472;-87
2021/04/09 11:46:37;;;;;;;9.57;8.70;;;13.70;36.00;;;;;;5015887;28;20502;-87
2021/04/09 11:49:07;;;;;;;9.37;8.50;;;13.90;35.50;;;;;;5013248;28;20228;-87
2021/04/09 11:51:38;;;;;;;9.27;8.50;;;13.90;35.80;;;;;;5013147;28;20431;-88
2021/04/09 11:54:06;;;;;;;9.47;8.00;;;14.30;36.00;;;;;;5010414;28;20439;-87
2021/04/09 11:56:46;;;;;;;12.93;9.17;;;13.10;36.30;;;;;;4996058;28;20403;-86
2021/04/09 11:59:13;;;;;;;10.00;7.80;;;13.50;35.90;;;;;;5011079;28;20474;-86
2021/04/09 12:01:41;;;;;;;9.87;7.37;;;13.50;36.00;;;;;;5031047;28;20623;-86
2021/04/09 12:04:07;;;;;;;7.47;6.87;;;13.40;35.80;;;;;;5017502;28;20422;-87
2021/04/09 12:06:37;;;;;;;6.60;6.10;;;13.50;36.10;;;;;;5035051;28;20442;-86
2021/04/09 12:09:05;;;;;;;7.63;7.13;;;13.40;35.70;;;;;;5034666;28;20289;-87
2021/04/09 12:11:32;;;;;;;8.30;7.43;;;13.70;36.30;;;;;;5032518;28;20464;-87
2021/04/09 12:13:58;;;;;;;8.53;7.90;;;13.70;35.70;;;;;;5035555;28;20421;-86
2021/04/09 12:16:23;;;;;;;6.83;6.33;;;13.80;35.60;;;;;;5034069;28;20501;-87
2021/04/09 12:18:52;;;;;;;6.97;6.27;;;14.00;35.00;;;;;;5039808;28;20227;-89
2021/04/09 12:21:19;;;;;;;8.17;7.47;;;14.10;34.70;;;;;;5052161;28;20180;-88
2021/04/09 12:23:47;;;;;;;7.80;7.13;;;13.40;34.40;;;;;;5032339;28;20419;-88
2021/04/09 12:26:13;;;;;;;7.43;6.67;;;14.20;35.40;;;;;;5052253;28;20415;-87
2021/04/09 12:28:39;;;;;;;7.80;7.20;;;14.70;36.60;;;;;;5049724;28;20473;-88
2021/04/09 12:34:07;;;;;;;6.63;6.13;;;16.10;38.30;;;;;;5079346;22;20319;-89
2021/04/09 12:36:36;;;;;;;8.93;7.80;;;15.50;36.40;;;;;;5023100;28;20516;-87
2021/04/09 12:55:32;;;;;;;12.60;11.40;;;13.60;35.50;;;;;;5250973;22;20487;-86
2021/04/09 13:00:38;;;;;;;12.23;10.40;;;13.80;35.60;;;;;;5069391;22;20490;-90
2021/04/09 13:03:09;;;;;;;8.83;7.97;;;14.20;36.60;;;;;;5011614;28;20415;-90
2021/04/09 13:05:38;;;;;;;7.90;7.30;;;14.20;36.40;;;;;;5009404;28;20431;-87
2021/04/09 13:08:09;;;;;;;6.47;5.97;;;14.50;38.10;;;;;;5011899;28;20458;-88
2021/04/09 13:10:36;;;;;;;7.27;6.87;;;14.80;35.00;;;;;;5012724;28;20488;-89
2021/04/09 13:13:02;;;;;;;9.00;8.10;;;17.90;38.50;;;;;;5012309;28;20432;-87
2021/04/09 13:15:28;;;;;;;6.77;6.37;;;12.30;35.50;;;;;;4997661;28;20444;-89
2021/04/09 13:17:54;;;;;;;7.87;7.30;;;;;;;;;;5009556;28;20440;-88
2021/04/09 13:20:30;;;;;;;7.03;6.53;;;15.20;33.00;;;;;;5010312;28;20173;-88
2021/04/09 13:23:00;;;;;;;7.50;6.90;;;15.90;35.50;;;;;;5011576;28;20428;-89
2021/04/09 13:28:27;;;;;;;6.40;6.00;;;16.80;32.60;;;;;;5031728;22;20483;-89
2021/04/09 13:30:56;;;;;;;7.63;6.90;;;18.70;34.90;;;;;;5031544;28;20434;-89
2021/04/09 13:33:36;;;;;;;8.03;7.20;;;15.30;33.70;;;;;;5033244;28;20418;-89
2021/04/09 13:36:13;;;;;;;6.67;6.30;;;15.10;33.00;;;;;;5033410;28;20443;-91
2021/04/09 13:38:45;;;;;;;7.50;6.87;;;16.90;35.40;;;;;;5030897;28;20438;-88
2021/04/09 13:41:13;;;;;;;7.40;6.80;;;14.90;33.80;;;;;;5032922;28;20424;-88
2021/04/09 13:44:03;;;;;;;7.00;6.70;;;13.50;33.00;;;;;;5033079;28;20504;-88
2021/04/09 13:46:33;;;;;;;7.10;6.60;;;17.60;35.90;;;;;;5015243;28;20412;-89
2021/04/09 13:49:05;;;;;;;6.80;6.40;;;15.60;34.10;;;;;;5031961;28;20506;-89
2021/04/09 13:51:41;;;;;;;6.03;5.63;;;15.30;33.50;;;;;;5032287;28;20415;-90
2021/04/09 13:54:11;;;;;;;7.60;7.10;;;13.80;31.50;;;;;;5033077;28;20451;-90
2021/04/09 13:56:56;;;;;;;6.60;6.23;;;15.90;33.40;;;;;;5035213;28;20423;-89
2021/04/09 13:59:22;;;;;;;7.30;6.77;;;18.50;34.90;;;;;;5029910;28;20425;-89
2021/04/09 14:01:58;;;;;;;6.67;6.17;;;15.60;32.00;;;;;;5014066;28;20173;-90
2021/04/09 14:04:24;;;;;;;7.80;7.20;;;17.20;34.50;;;;;;5015418;28;20172;-88
2021/04/09 14:06:57;;;;;;;6.67;6.33;;;16.90;36.00;;;;;;4692951;28;10000503;-87
2021/04/09 14:09:23;;;;;;;13.60;12.23;;;16.60;34.10;;;;;;5034241;28;20319;-88
2021/04/09 14:11:49;;;;;;;8.50;8.00;;;;;;;;;;5016875;28;20440;-87
2021/04/09 14:14:18;;;;;;;8.50;7.73;;;15.80;31.70;;;;;;5003139;28;20165;-89
2021/04/09 14:16:43;;;;;;;7.67;7.17;;;16.20;35.20;;;;;;5019194;28;20428;-89
2021/04/09 14:19:12;;;;;;;6.53;5.97;;;15.30;32.20;;;;;;5017933;28;20427;-88
2021/04/09 14:21:38;;;;;;;8.00;7.17;;;16.70;32.10;;;;;;5013137;28;20259;-88
2021/04/09 14:24:05;;;;;;;7.80;7.40;;;16.90;32.20;;;;;;5011450;28;20435;-87
2021/04/09 14:26:34;;;;;;;7.30;6.80;;;15.60;31.10;;;;;;5022338;28;20252;-89
2021/04/09 14:29:00;;;;;;;7.67;7.07;;;15.30;31.60;;;;;;5003847;28;20895;-87
2021/04/09 14:31:31;;;;;;;6.63;6.10;;;15.10;31.30;;;;;;5008294;28;20428;-89
2021/04/09 14:33:56;;;;;;;7.77;7.17;;;16.10;33.00;;;;;;5023296;28;20176;-87
2021/04/09 14:36:22;;;;;;;8.37;6.90;;;16.40;34.20;;;;;;5034657;28;20481;-88
2021/04/09 14:38:48;;;;;;;7.03;6.53;;;;;;;;;;5024188;28;20222;-88
2021/04/09 14:41:14;;;;;;;7.90;7.40;;;14.50;32.20;;;;;;5022688;28;20220;-87
2021/04/09 14:43:39;;;;;;;7.67;7.17;;;13.60;32.20;;;;;;5020288;28;20420;-88
2021/04/09 14:46:05;;;;;;;8.27;7.77;;;14.90;32.90;;;;;;5028716;28;20200;-89
2021/04/09 14:48:36;;;;;;;7.57;7.00;;;14.90;32.10;;;;;;5026054;28;20196;-90
2021/04/09 14:51:02;;;;;;;8.63;8.03;;;14.00;32.40;;;;;;5013133;28;20434;-88
2021/04/09 14:53:29;;;;;;;7.23;6.57;;;14.90;32.80;;;;;;5016725;28;20497;-85
2021/04/09 14:55:56;;;;;;;7.33;6.93;;;14.90;33.50;;;;;;5026014;28;20423;-86
2021/04/09 14:58:22;;;;;;;7.57;7.10;;;15.60;33.60;;;;;;5032665;28;20435;-87
2021/04/09 15:00:50;;;;;;;7.73;7.17;;;18.50;35.10;;;;;;5035069;28;20482;-88